sensor_id;sensor_type;location;lat;lon;timestamp;pressure;altitude;pressure_sealevel;temperature;humidity
12594;BME280;6362;50.208;9.182;2022-09-03T00:01:57;99573.66;;;16.63;56.94
12594;BME280;6362;50.208;9.182;2022-09-03T00:07:05;99565.25;;;16.55;57.75
12594;BME280;6362;50.208;9.182;2022-09-03T00:09:45;99566.94;;;16.56;57.57
12594;BME280;6362;50.208;9.182;2022-09-03T00:12:22;99561.88;;;16.52;57.75
12594;BME280;6362;50.208;9.182;2022-09-03T00:14:55;99557.63;;;16.49;58.29
12594;BME280;6362;50.208;9.182;2022-09-03T00:17:26;99565.44;;;16.46;58.10
12594;BME280;6362;50.208;9.182;2022-09-03T00:20:06;99561.19;;;16.42;58.41
12594;BME280;6362;50.208;9.182;2022-09-03T00:22:44;99553.50;;;16.40;58.57
12594;BME280;6362;50.208;9.182;2022-09-03T00:25:16;99557.81;;;16.40;58.67
12594;BME280;6362;50.208;9.182;2022-09-03T00:27:44;99558.72;;;16.36;59.02
12594;BME280;6362;50.208;9.182;2022-09-03T00:30:15;99556.13;;;16.37;59.52
12594;BME280;6362;50.208;9.182;2022-09-03T00:33:08;99550.25;;;16.31;59.35
12594;BME280;6362;50.208;9.182;2022-09-03T00:38:07;99547.84;;;16.21;59.92
12594;BME280;6362;50.208;9.182;2022-09-03T00:49:13;99551.28;;;16.20;60.18
12594;BME280;6362;50.208;9.182;2022-09-03T01:02:40;99543.22;;;15.91;61.63
12594;BME280;6362;50.208;9.182;2022-09-03T01:10:41;99552.75;;;15.86;62.51
12594;BME280;6362;50.208;9.182;2022-09-03T01:13:17;99549.25;;;15.90;62.20
12594;BME280;6362;50.208;9.182;2022-09-03T01:15:56;99551.78;;;15.91;62.41
12594;BME280;6362;50.208;9.182;2022-09-03T01:24:10;99559.19;;;16.10;62.13
12594;BME280;6362;50.208;9.182;2022-09-03T01:29:44;99557.31;;;16.19;61.37
12594;BME280;6362;50.208;9.182;2022-09-03T01:32:18;99564.78;;;16.35;60.73
12594;BME280;6362;50.208;9.182;2022-09-03T01:48:39;99547.53;;;16.38;60.83
12594;BME280;6362;50.208;9.182;2022-09-03T01:51:12;99548.41;;;16.37;60.96
12594;BME280;6362;50.208;9.182;2022-09-03T01:59:33;99549.25;;;16.38;61.10
12594;BME280;6362;50.208;9.182;2022-09-03T02:02:21;99543.81;;;16.53;60.51
12594;BME280;6362;50.208;9.182;2022-09-03T02:04:59;99545.50;;;16.56;60.22
12594;BME280;6362;50.208;9.182;2022-09-03T02:07:30;99544.59;;;16.58;60.24
12594;BME280;6362;50.208;9.182;2022-09-03T02:09:59;99540.28;;;16.59;60.19
12594;BME280;6362;50.208;9.182;2022-09-03T02:12:28;99537.69;;;16.59;60.50
12594;BME280;6362;50.208;9.182;2022-09-03T02:15:00;99535.97;;;16.59;60.36
12594;BME280;6362;50.208;9.182;2022-09-03T02:17:30;99533.38;;;16.61;60.19
12594;BME280;6362;50.208;9.182;2022-09-03T02:19:56;99538.53;;;16.59;60.21
12594;BME280;6362;50.208;9.182;2022-09-03T02:22:22;99532.53;;;16.60;60.18
12594;BME280;6362;50.208;9.182;2022-09-03T02:24:48;99543.66;;;16.62;60.09
12594;BME280;6362;50.208;9.182;2022-09-03T02:27:14;99534.19;;;16.63;60.08
12594;BME280;6362;50.208;9.182;2022-09-03T02:29:40;99523.97;;;16.60;60.07
12594;BME280;6362;50.208;9.182;2022-09-03T02:32:05;99531.78;;;16.55;60.67
12594;BME280;6362;50.208;9.182;2022-09-03T02:34:31;99526.66;;;16.52;60.81
12594;BME280;6362;50.208;9.182;2022-09-03T02:36:56;99535.25;;;16.53;61.04
12594;BME280;6362;50.208;9.182;2022-09-03T02:39:21;99534.28;;;16.58;60.90
12594;BME280;6362;50.208;9.182;2022-09-03T02:41:54;99531.97;;;16.46;60.88
12594;BME280;6362;50.208;9.182;2022-09-03T02:44:25;99530.22;;;16.47;61.44
12594;BME280;6362;50.208;9.182;2022-09-03T02:47:00;99532.91;;;16.39;61.01
12594;BME280;6362;50.208;9.182;2022-09-03T02:49:28;99533.09;;;16.30;62.04
12594;BME280;6362;50.208;9.182;2022-09-03T02:52:00;99536.69;;;16.21;62.06
12594;BME280;6362;50.208;9.182;2022-09-03T02:54:26;99540.25;;;16.14;62.18
12594;BME280;6362;50.208;9.182;2022-09-03T02:56:53;99539.38;;;16.15;62.43
12594;BME280;6362;50.208;9.182;2022-09-03T02:59:19;99537.75;;;16.11;62.65
12594;BME280;6362;50.208;9.182;2022-09-03T03:01:47;99535.16;;;16.11;62.65
12594;BME280;6362;50.208;9.182;2022-09-03T03:04:12;99537.66;;;16.15;62.73
12594;BME280;6362;50.208;9.182;2022-09-03T03:06:38;99540.00;;;16.28;61.98
12594;BME280;6362;50.208;9.182;2022-09-03T03:09:04;99536.66;;;16.22;62.21
12594;BME280;6362;50.208;9.182;2022-09-03T03:11:30;99537.56;;;16.21;62.51
12594;BME280;6362;50.208;9.182;2022-09-03T03:13:59;99524.72;;;16.18;62.25
12594;BME280;6362;50.208;9.182;2022-09-03T03:16:24;99530.69;;;16.22;62.27
12594;BME280;6362;50.208;9.182;2022-09-03T03:18:50;99517.81;;;16.20;62.31
12594;BME280;6362;50.208;9.182;2022-09-03T03:21:17;99526.47;;;16.18;62.56
12594;BME280;6362;50.208;9.182;2022-09-03T03:23:44;99526.38;;;16.21;62.54
12594;BME280;6362;50.208;9.182;2022-09-03T03:26:12;99522.06;;;16.23;62.45
12594;BME280;6362;50.208;9.182;2022-09-03T03:28:37;99523.63;;;16.32;62.39
12594;BME280;6362;50.208;9.182;2022-09-03T03:31:07;99521.88;;;16.34;62.15
12594;BME280;6362;50.208;9.182;2022-09-03T03:33:33;99524.44;;;16.34;61.61
12594;BME280;6362;50.208;9.182;2022-09-03T03:36:04;99514.97;;;16.37;61.82
12594;BME280;6362;50.208;9.182;2022-09-03T03:38:30;99522.78;;;16.31;62.49
12594;BME280;6362;50.208;9.182;2022-09-03T03:40:55;99511.56;;;16.34;61.99
12594;BME280;6362;50.208;9.182;2022-09-03T03:43:20;99515.22;;;16.23;62.47
12594;BME280;6362;50.208;9.182;2022-09-03T03:45:57;99518.66;;;16.21;62.87
12594;BME280;6362;50.208;9.182;2022-09-03T03:48:24;99516.91;;;16.23;62.81
12594;BME280;6362;50.208;9.182;2022-09-03T03:50:50;99512.50;;;16.30;62.56
12594;BME280;6362;50.208;9.182;2022-09-03T03:53:15;99511.78;;;16.23;62.79
12594;BME280;6362;50.208;9.182;2022-09-03T03:55:41;99516.97;;;16.21;62.56
12594;BME280;6362;50.208;9.182;2022-09-03T03:58:06;99523.72;;;16.26;62.85
12594;BME280;6362;50.208;9.182;2022-09-03T04:00:32;99513.50;;;16.22;62.61
12594;BME280;6362;50.208;9.182;2022-09-03T04:03:02;99507.41;;;16.28;62.30
12594;BME280;6362;50.208;9.182;2022-09-03T04:05:28;99515.16;;;16.27;62.66
12594;BME280;6362;50.208;9.182;2022-09-03T04:07:53;99509.09;;;16.29;62.24
12594;BME280;6362;50.208;9.182;2022-09-03T04:10:19;99506.53;;;16.28;62.87
12594;BME280;6362;50.208;9.182;2022-09-03T04:12:45;99510.03;;;16.25;62.63
12594;BME280;6362;50.208;9.182;2022-09-03T04:15:11;99506.66;;;16.21;62.82
12594;BME280;6362;50.208;9.182;2022-09-03T04:17:38;99506.53;;;16.29;62.83
12594;BME280;6362;50.208;9.182;2022-09-03T04:20:04;99501.53;;;16.21;63.08
12594;BME280;6362;50.208;9.182;2022-09-03T04:22:30;99495.56;;;16.19;63.10
12594;BME280;6362;50.208;9.182;2022-09-03T04:24:55;99502.19;;;16.33;62.51
12594;BME280;6362;50.208;9.182;2022-09-03T04:27:21;99503.13;;;16.27;63.20
12594;BME280;6362;50.208;9.182;2022-09-03T04:29:46;99496.31;;;16.24;63.10
12594;BME280;6362;50.208;9.182;2022-09-03T04:32:12;99505.69;;;16.27;62.88
12594;BME280;6362;50.208;9.182;2022-09-03T04:34:56;99506.59;;;16.26;63.00
12594;BME280;6362;50.208;9.182;2022-09-03T04:37:21;99504.94;;;16.22;62.93
12594;BME280;6362;50.208;9.182;2022-09-03T04:39:47;99502.38;;;16.20;63.16
12594;BME280;6362;50.208;9.182;2022-09-03T04:42:12;99514.25;;;16.28;62.84
12594;BME280;6362;50.208;9.182;2022-09-03T04:44:38;99511.56;;;16.34;62.66
12594;BME280;6362;50.208;9.182;2022-09-03T04:47:05;99510.66;;;16.38;62.40
12594;BME280;6362;50.208;9.182;2022-09-03T04:49:30;99504.75;;;16.33;63.02
12594;BME280;6362;50.208;9.182;2022-09-03T04:51:56;99510.63;;;16.39;62.83
12594;BME280;6362;50.208;9.182;2022-09-03T04:54:21;99508.91;;;16.40;62.52
12594;BME280;6362;50.208;9.182;2022-09-03T04:56:47;99502.94;;;16.38;62.82
12594;BME280;6362;50.208;9.182;2022-09-03T04:59:12;99506.38;;;16.37;62.67
12594;BME280;6362;50.208;9.182;2022-09-03T05:01:39;99511.50;;;16.37;62.77
12594;BME280;6362;50.208;9.182;2022-09-03T05:04:06;99513.25;;;16.36;63.02
12594;BME280;6362;50.208;9.182;2022-09-03T05:06:32;99514.91;;;16.39;62.90
12594;BME280;6362;50.208;9.182;2022-09-03T05:08:59;99517.47;;;16.40;62.42
12594;BME280;6362;50.208;9.182;2022-09-03T05:11:26;99513.13;;;16.42;62.63
12594;BME280;6362;50.208;9.182;2022-09-03T05:13:54;99514.81;;;16.43;62.58
12594;BME280;6362;50.208;9.182;2022-09-03T05:16:21;99515.78;;;16.39;62.83
12594;BME280;6362;50.208;9.182;2022-09-03T05:18:50;99515.81;;;16.36;63.15
12594;BME280;6362;50.208;9.182;2022-09-03T05:21:17;99509.66;;;16.45;62.69
12594;BME280;6362;50.208;9.182;2022-09-03T05:23:47;99513.19;;;16.39;62.95
12594;BME280;6362;50.208;9.182;2022-09-03T05:26:19;99520.06;;;16.39;63.20
12594;BME280;6362;50.208;9.182;2022-09-03T05:28:46;99535.47;;;16.42;63.06
12594;BME280;6362;50.208;9.182;2022-09-03T05:31:17;99529.38;;;16.46;63.56
12594;BME280;6362;50.208;9.182;2022-09-03T05:33:44;99532.00;;;16.43;63.33
12594;BME280;6362;50.208;9.182;2022-09-03T05:36:12;99542.28;;;16.44;63.62
12594;BME280;6362;50.208;9.182;2022-09-03T05:38:38;99532.78;;;16.47;64.03
12594;BME280;6362;50.208;9.182;2022-09-03T05:41:06;99535.25;;;16.53;63.38
12594;BME280;6362;50.208;9.182;2022-09-03T05:43:33;99546.41;;;16.53;63.46
12594;BME280;6362;50.208;9.182;2022-09-03T05:45:59;99541.19;;;16.56;63.27
12594;BME280;6362;50.208;9.182;2022-09-03T05:48:26;99542.81;;;16.60;63.45
12594;BME280;6362;50.208;9.182;2022-09-03T05:51:03;99540.25;;;16.60;63.40
12594;BME280;6362;50.208;9.182;2022-09-03T05:53:31;99536.75;;;16.64;63.30
12594;BME280;6362;50.208;9.182;2022-09-03T05:55:59;99541.16;;;16.58;63.89
12594;BME280;6362;50.208;9.182;2022-09-03T05:58:33;99540.19;;;16.63;63.53
12594;BME280;6362;50.208;9.182;2022-09-03T06:00:58;99538.31;;;16.72;63.40
12594;BME280;6362;50.208;9.182;2022-09-03T06:03:24;99544.38;;;16.69;63.33
12594;BME280;6362;50.208;9.182;2022-09-03T06:05:50;99543.56;;;16.67;63.73
12594;BME280;6362;50.208;9.182;2022-09-03T06:08:17;99552.09;;;16.71;63.77
12594;BME280;6362;50.208;9.182;2022-09-03T06:10:42;99548.50;;;16.78;63.44
12594;BME280;6362;50.208;9.182;2022-09-03T06:13:08;99548.47;;;16.81;63.27
12594;BME280;6362;50.208;9.182;2022-09-03T06:15:34;99552.75;;;16.82;63.07
12594;BME280;6362;50.208;9.182;2022-09-03T06:18:00;99544.06;;;16.86;63.08
12594;BME280;6362;50.208;9.182;2022-09-03T06:20:25;99537.22;;;16.85;62.99
12594;BME280;6362;50.208;9.182;2022-09-03T06:22:56;99543.22;;;16.84;63.31
12594;BME280;6362;50.208;9.182;2022-09-03T06:25:22;99541.56;;;16.83;63.19
12594;BME280;6362;50.208;9.182;2022-09-03T06:27:47;99545.81;;;16.84;63.35
12594;BME280;6362;50.208;9.182;2022-09-03T06:30:13;99552.75;;;16.82;63.36
12594;BME280;6362;50.208;9.182;2022-09-03T06:32:43;99554.44;;;16.83;63.47
12594;BME280;6362;50.208;9.182;2022-09-03T06:35:09;99550.09;;;16.87;63.09
12594;BME280;6362;50.208;9.182;2022-09-03T06:37:39;99549.25;;;16.84;63.27
12594;BME280;6362;50.208;9.182;2022-09-03T06:40:05;99552.50;;;16.93;63.40
12594;BME280;6362;50.208;9.182;2022-09-03T06:42:32;99555.25;;;16.85;63.51
12594;BME280;6362;50.208;9.182;2022-09-03T06:44:58;99558.56;;;16.92;63.51
12594;BME280;6362;50.208;9.182;2022-09-03T06:47:24;99556.72;;;16.97;63.38
12594;BME280;6362;50.208;9.182;2022-09-03T06:49:49;99552.38;;;16.99;63.25
12594;BME280;6362;50.208;9.182;2022-09-03T06:52:14;99566.94;;;17.01;63.32
12594;BME280;6362;50.208;9.182;2022-09-03T06:54:40;99563.50;;;17.01;62.95
12594;BME280;6362;50.208;9.182;2022-09-03T06:57:05;99565.81;;;17.13;67.17
12594;BME280;6362;50.208;9.182;2022-09-03T06:59:31;99556.13;;;17.24;63.41
12594;BME280;6362;50.208;9.182;2022-09-03T07:01:56;99555.41;;;17.18;63.64
12594;BME280;6362;50.208;9.182;2022-09-03T07:04:24;99560.41;;;17.27;64.08
12594;BME280;6362;50.208;9.182;2022-09-03T07:06:51;99567.34;;;17.23;63.15
12594;BME280;6362;50.208;9.182;2022-09-03T07:09:17;99570.78;;;17.22;64.47
12594;BME280;6362;50.208;9.182;2022-09-03T07:11:43;99562.78;;;17.36;65.65
12594;BME280;6362;50.208;9.182;2022-09-03T07:14:12;99568.03;;;17.32;63.55
12594;BME280;6362;50.208;9.182;2022-09-03T07:16:38;99570.44;;;17.38;63.80
12594;BME280;6362;50.208;9.182;2022-09-03T07:19:06;99572.72;;;17.52;64.22
12594;BME280;6362;50.208;9.182;2022-09-03T07:21:34;99577.94;;;17.48;63.41
12594;BME280;6362;50.208;9.182;2022-09-03T07:24:04;99570.06;;;17.56;63.55
12594;BME280;6362;50.208;9.182;2022-09-03T07:26:32;99577.75;;;17.58;62.09
12594;BME280;6362;50.208;9.182;2022-09-03T07:28:58;99582.06;;;17.56;62.51
12594;BME280;6362;50.208;9.182;2022-09-03T07:31:30;99584.72;;;17.54;62.10
12594;BME280;6362;50.208;9.182;2022-09-03T07:34:07;99572.53;;;17.61;64.22
12594;BME280;6362;50.208;9.182;2022-09-03T07:36:45;99572.53;;;17.61;62.71
12594;BME280;6362;50.208;9.182;2022-09-03T07:39:12;99569.88;;;17.62;64.30
12594;BME280;6362;50.208;9.182;2022-09-03T07:41:39;99577.53;;;17.67;63.74
12594;BME280;6362;50.208;9.182;2022-09-03T07:44:10;99579.22;;;17.68;64.28
12594;BME280;6362;50.208;9.182;2022-09-03T07:46:37;99579.03;;;17.76;63.99
12594;BME280;6362;50.208;9.182;2022-09-03T07:49:04;99582.34;;;17.82;66.89
12594;BME280;6362;50.208;9.182;2022-09-03T07:51:34;99580.81;;;17.74;65.72
12594;BME280;6362;50.208;9.182;2022-09-03T07:54:01;99580.00;;;17.72;68.84
12594;BME280;6362;50.208;9.182;2022-09-03T07:56:34;99593.31;;;17.53;69.23
12594;BME280;6362;50.208;9.182;2022-09-03T07:59:01;99591.78;;;17.44;66.85
12594;BME280;6362;50.208;9.182;2022-09-03T08:01:28;99598.06;;;17.33;72.52
12594;BME280;6362;50.208;9.182;2022-09-03T08:03:55;99610.13;;;17.31;72.60
12594;BME280;6362;50.208;9.182;2022-09-03T08:06:24;99616.13;;;17.31;71.52
12594;BME280;6362;50.208;9.182;2022-09-03T08:08:57;99618.97;;;17.20;74.15
12594;BME280;6362;50.208;9.182;2022-09-03T08:11:25;99617.53;;;17.05;83.14
12594;BME280;6362;50.208;9.182;2022-09-03T08:16:26;99619.75;;;16.80;92.05
12594;BME280;6362;50.208;9.182;2022-09-03T08:18:52;99616.41;;;16.74;97.70
12594;BME280;6362;50.208;9.182;2022-09-03T08:21:18;99624.22;;;16.69;100.00
12594;BME280;6362;50.208;9.182;2022-09-03T08:23:46;99619.94;;;16.68;100.00
12594;BME280;6362;50.208;9.182;2022-09-03T08:26:14;99619.09;;;16.66;100.00
12594;BME280;6362;50.208;9.182;2022-09-03T08:28:40;99621.09;;;16.52;100.00
12594;BME280;6362;50.208;9.182;2022-09-03T08:31:18;99613.47;;;16.45;100.00
12594;BME280;6362;50.208;9.182;2022-09-03T08:33:49;99621.00;;;16.56;100.00
12594;BME280;6362;50.208;9.182;2022-09-03T08:36:16;99619.44;;;16.48;100.00
12594;BME280;6362;50.208;9.182;2022-09-03T08:38:43;99614.28;;;16.49;100.00
12594;BME280;6362;50.208;9.182;2022-09-03T08:41:27;99614.84;;;16.63;100.00
12594;BME280;6362;50.208;9.182;2022-09-03T08:44:24;99624.22;;;16.69;100.00
12594;BME280;6362;50.208;9.182;2022-09-03T08:49:33;99619.28;;;17.03;100.00
12594;BME280;6362;50.208;9.182;2022-09-03T08:52:05;99616.09;;;17.33;100.00
12594;BME280;6362;50.208;9.182;2022-09-03T08:54:33;99622.69;;;17.47;100.00
12594;BME280;6362;50.208;9.182;2022-09-03T08:57:01;99616.59;;;17.89;100.00
12594;BME280;6362;50.208;9.182;2022-09-03T08:59:30;99610.94;;;18.10;100.00
12594;BME280;6362;50.208;9.182;2022-09-03T09:02:24;99606.00;;;18.36;99.11
12594;BME280;6362;50.208;9.182;2022-09-03T09:07:40;99609.50;;;18.66;89.95
12594;BME280;6362;50.208;9.182;2022-09-03T09:12:50;99599.63;;;18.82;86.01
12594;BME280;6362;50.208;9.182;2022-09-03T09:15:27;99600.56;;;18.79;85.30
12594;BME280;6362;50.208;9.182;2022-09-03T09:23:03;99588.91;;;18.64;84.49
12594;BME280;6362;50.208;9.182;2022-09-03T09:25:31;99581.34;;;18.57;83.23
12594;BME280;6362;50.208;9.182;2022-09-03T09:28:12;99580.59;;;18.53;86.49
12594;BME280;6362;50.208;9.182;2022-09-03T09:30:38;99573.63;;;18.55;88.19
12594;BME280;6362;50.208;9.182;2022-09-03T09:33:04;99573.03;;;18.45;88.98
12594;BME280;6362;50.208;9.182;2022-09-03T09:35:31;99565.19;;;18.48;89.94
12594;BME280;6362;50.208;9.182;2022-09-03T09:37:57;99570.88;;;18.61;88.24
12594;BME280;6362;50.208;9.182;2022-09-03T09:42:50;99575.63;;;18.78;86.66
12594;BME280;6362;50.208;9.182;2022-09-03T09:45:23;99569.81;;;19.01;88.53
12594;BME280;6362;50.208;9.182;2022-09-03T09:47:53;99569.16;;;19.23;87.79
12594;BME280;6362;50.208;9.182;2022-09-03T09:50:20;99563.16;;;19.50;87.58
12594;BME280;6362;50.208;9.182;2022-09-03T09:52:46;99564.66;;;19.86;88.25
12594;BME280;6362;50.208;9.182;2022-09-03T09:55:17;99574.78;;;20.18;82.98
12594;BME280;6362;50.208;9.182;2022-09-03T09:57:44;99574.53;;;20.76;75.02
12594;BME280;6362;50.208;9.182;2022-09-03T10:00:12;99580.34;;;21.30;80.13
12594;BME280;6362;50.208;9.182;2022-09-03T10:02:59;99573.84;;;21.64;73.75
12594;BME280;6362;50.208;9.182;2022-09-03T10:05:26;99573.56;;;21.92;70.30
12594;BME280;6362;50.208;9.182;2022-09-03T10:08:19;99578.91;;;21.89;60.14
12594;BME280;6362;50.208;9.182;2022-09-03T10:10:47;99582.88;;;21.98;58.71
12594;BME280;6362;50.208;9.182;2022-09-03T10:13:18;99583.25;;;21.89;59.57
12594;BME280;6362;50.208;9.182;2022-09-03T10:15:58;99586.09;;;21.82;56.34
12594;BME280;6362;50.208;9.182;2022-09-03T10:18:36;99581.69;;;21.85;55.38
12594;BME280;6362;50.208;9.182;2022-09-03T10:21:13;99593.88;;;21.82;55.66
12594;BME280;6362;50.208;9.182;2022-09-03T10:23:50;99589.34;;;22.08;55.57
12594;BME280;6362;50.208;9.182;2022-09-03T10:26:20;99594.38;;;22.13;53.76
12594;BME280;6362;50.208;9.182;2022-09-03T10:28:50;99596.84;;;22.16;53.11
12594;BME280;6362;50.208;9.182;2022-09-03T10:34:17;99597.69;;;22.38;54.36
12594;BME280;6362;50.208;9.182;2022-09-03T10:42:20;99601.72;;;22.64;50.24
12594;BME280;6362;50.208;9.182;2022-09-03T10:50:22;99587.38;;;22.95;51.60
12594;BME280;6362;50.208;9.182;2022-09-03T10:55:30;99591.09;;;22.90;51.85
12594;BME280;6362;50.208;9.182;2022-09-03T10:58:28;99598.25;;;22.84;51.50
12594;BME280;6362;50.208;9.182;2022-09-03T11:01:02;99595.50;;;22.69;51.59
12594;BME280;6362;50.208;9.182;2022-09-03T11:03:45;99594.28;;;22.36;52.87
12594;BME280;6362;50.208;9.182;2022-09-03T11:11:19;99580.06;;;21.82;55.41
12594;BME280;6362;50.208;9.182;2022-09-03T11:13:54;99570.81;;;21.75;55.02
12594;BME280;6362;50.208;9.182;2022-09-03T11:16:25;99568.47;;;21.69;57.16
12594;BME280;6362;50.208;9.182;2022-09-03T11:19:06;99580.16;;;21.57;56.21
12594;BME280;6362;50.208;9.182;2022-09-03T11:21:34;99580.47;;;21.49;55.55
12594;BME280;6362;50.208;9.182;2022-09-03T11:24:12;99589.28;;;21.45;55.88
12594;BME280;6362;50.208;9.182;2022-09-03T11:26:41;99592.84;;;21.42;56.20
12594;BME280;6362;50.208;9.182;2022-09-03T11:29:16;99591.97;;;21.44;55.45
12594;BME280;6362;50.208;9.182;2022-09-03T11:32:06;99593.09;;;21.58;55.65
12594;BME280;6362;50.208;9.182;2022-09-03T11:34:50;99587.25;;;21.75;56.39
12594;BME280;6362;50.208;9.182;2022-09-03T11:37:27;99586.97;;;21.81;55.52
12594;BME280;6362;50.208;9.182;2022-09-03T11:40:03;99588.31;;;21.92;55.56
12594;BME280;6362;50.208;9.182;2022-09-03T11:45:10;99579.06;;;22.07;53.58
12594;BME280;6362;50.208;9.182;2022-09-03T11:47:40;99586.25;;;22.00;54.24
12594;BME280;6362;50.208;9.182;2022-09-03T11:50:19;99593.00;;;22.04;53.71
12594;BME280;6362;50.208;9.182;2022-09-03T11:52:46;99584.25;;;22.07;56.18
12594;BME280;6362;50.208;9.182;2022-09-03T11:55:23;99584.50;;;22.21;54.36
12594;BME280;6362;50.208;9.182;2022-09-03T11:57:49;99584.78;;;22.35;54.62
12594;BME280;6362;50.208;9.182;2022-09-03T12:00:17;99578.75;;;22.55;55.25
12594;BME280;6362;50.208;9.182;2022-09-03T12:13:41;99570.22;;;23.84;52.35
12594;BME280;6362;50.208;9.182;2022-09-03T12:19:59;99563.56;;;25.31;47.74
12594;BME280;6362;50.208;9.182;2022-09-03T12:22:00;99548.63;;;25.79;45.92
12594;BME280;6362;50.208;9.182;2022-09-03T12:24:27;99549.59;;;26.23;47.75
12594;BME280;6362;50.208;9.182;2022-09-03T12:26:57;99546.09;;;26.95;43.32
12594;BME280;6362;50.208;9.182;2022-09-03T12:29:27;99551.53;;;27.88;41.90
12594;BME280;6362;50.208;9.182;2022-09-03T12:31:53;99540.78;;;28.44;38.84
12594;BME280;6362;50.208;9.182;2022-09-03T12:34:21;99538.47;;;28.65;42.79
12594;BME280;6362;50.208;9.182;2022-09-03T12:36:49;99532.78;;;28.58;38.96
12594;BME280;6362;50.208;9.182;2022-09-03T12:39:20;99521.09;;;28.75;36.18
12594;BME280;6362;50.208;9.182;2022-09-03T12:44:27;99521.72;;;28.79;38.40
12594;BME280;6362;50.208;9.182;2022-09-03T12:47:10;99528.28;;;29.10;36.55
12594;BME280;6362;50.208;9.182;2022-09-03T12:49:44;99520.19;;;29.37;35.44
12594;BME280;6362;50.208;9.182;2022-09-03T12:52:32;99524.28;;;28.68;35.29
12594;BME280;6362;50.208;9.182;2022-09-03T12:57:54;99508.75;;;28.64;35.90
12594;BME280;6362;50.208;9.182;2022-09-03T13:00:21;99512.84;;;29.18;36.02
12594;BME280;6362;50.208;9.182;2022-09-03T13:03:21;99505.88;;;29.41;34.23
12594;BME280;6362;50.208;9.182;2022-09-03T13:06:00;99513.44;;;29.70;34.20
12594;BME280;6362;50.208;9.182;2022-09-03T13:08:30;99502.13;;;30.03;33.64
12594;BME280;6362;50.208;9.182;2022-09-03T13:10:58;99496.66;;;30.18;33.41
12594;BME280;6362;50.208;9.182;2022-09-03T13:13:36;99513.56;;;30.49;34.76
12594;BME280;6362;50.208;9.182;2022-09-03T13:22:32;99501.00;;;29.72;35.04
12594;BME280;6362;50.208;9.182;2022-09-03T13:25:15;99507.16;;;29.60;34.39
12594;BME280;6362;50.208;9.182;2022-09-03T13:30:22;99503.06;;;29.80;33.78
12594;BME280;6362;50.208;9.182;2022-09-03T13:33:03;99506.09;;;29.38;35.12
12594;BME280;6362;50.208;9.182;2022-09-03T13:41:07;99495.41;;;29.77;35.84
12594;BME280;6362;50.208;9.182;2022-09-03T13:48:59;99497.28;;;30.89;33.43
12594;BME280;6362;50.208;9.182;2022-09-03T13:51:50;99505.69;;;30.60;33.01
12594;BME280;6362;50.208;9.182;2022-09-03T13:54:31;99502.91;;;30.39;33.93
12594;BME280;6362;50.208;9.182;2022-09-03T13:57:05;99500.84;;;30.20;33.75
12594;BME280;6362;50.208;9.182;2022-09-03T13:59:42;99500.34;;;29.93;34.29
12594;BME280;6362;50.208;9.182;2022-09-03T14:02:26;99499.69;;;28.81;36.19
12594;BME280;6362;50.208;9.182;2022-09-03T14:10:26;99506.41;;;27.16;41.14
12594;BME280;6362;50.208;9.182;2022-09-03T14:16:05;99494.72;;;27.22;41.85
12594;BME280;6362;50.208;9.182;2022-09-03T14:18:44;99494.47;;;27.79;41.65
12594;BME280;6362;50.208;9.182;2022-09-03T14:21:20;99493.13;;;28.12;39.95
12594;BME280;6362;50.208;9.182;2022-09-03T14:24:14;99490.31;;;27.62;40.58
12594;BME280;6362;50.208;9.182;2022-09-03T14:27:07;99491.19;;;27.75;40.82
12594;BME280;6362;50.208;9.182;2022-09-03T14:29:34;99489.25;;;27.92;40.42
12594;BME280;6362;50.208;9.182;2022-09-03T14:35:04;99494.69;;;29.02;37.96
12594;BME280;6362;50.208;9.182;2022-09-03T14:40:14;99490.22;;;28.92;37.47
12594;BME280;6362;50.208;9.182;2022-09-03T14:51:33;99494.81;;;29.84;37.27
12594;BME280;6362;50.208;9.182;2022-09-03T15:08:07;99500.06;;;28.51;39.44
12594;BME280;6362;50.208;9.182;2022-09-03T15:10:49;99496.63;;;28.51;39.22
12594;BME280;6362;50.208;9.182;2022-09-03T15:13:20;99496.78;;;28.60;39.72
12594;BME280;6362;50.208;9.182;2022-09-03T15:16:13;99493.56;;;28.94;38.47
12594;BME280;6362;50.208;9.182;2022-09-03T15:30:05;99499.94;;;28.14;39.54
12594;BME280;6362;50.208;9.182;2022-09-03T15:41:56;99499.56;;;26.14;46.69
12594;BME280;6362;50.208;9.182;2022-09-03T15:43:59;99501.94;;;25.89;47.82
12594;BME280;6362;50.208;9.182;2022-09-03T15:46:44;99498.09;;;25.64;50.90
12594;BME280;6362;50.208;9.182;2022-09-03T15:52:05;99510.84;;;25.24;50.67
12594;BME280;6362;50.208;9.182;2022-09-03T15:54:55;99500.38;;;25.08;51.37
12594;BME280;6362;50.208;9.182;2022-09-03T15:57:32;99503.31;;;24.86;51.20
12594;BME280;6362;50.208;9.182;2022-09-03T16:00:03;99507.94;;;24.81;51.99
12594;BME280;6362;50.208;9.182;2022-09-03T16:10:11;99517.00;;;24.74;53.36
12594;BME280;6362;50.208;9.182;2022-09-03T16:18:38;99509.81;;;25.43;50.26
12594;BME280;6362;50.208;9.182;2022-09-03T16:21:23;99515.00;;;25.89;49.87
12594;BME280;6362;50.208;9.182;2022-09-03T16:24:02;99519.28;;;26.34;48.26
12594;BME280;6362;50.208;9.182;2022-09-03T16:28:59;99509.44;;;26.09;48.38
12594;BME280;6362;50.208;9.182;2022-09-03T16:37:38;99516.63;;;24.98;52.65
12594;BME280;6362;50.208;9.182;2022-09-03T16:42:39;99516.78;;;24.45;54.27
12594;BME280;6362;50.208;9.182;2022-09-03T16:45:18;99520.31;;;24.27;55.02
12594;BME280;6362;50.208;9.182;2022-09-03T16:48:19;99513.75;;;24.20;55.45
12594;BME280;6362;50.208;9.182;2022-09-03T16:50:55;99510.19;;;24.05;55.75
12594;BME280;6362;50.208;9.182;2022-09-03T16:59:14;99512.72;;;23.53;58.36
12594;BME280;6362;50.208;9.182;2022-09-03T17:12:36;99529.88;;;22.82;61.79
12594;BME280;6362;50.208;9.182;2022-09-03T17:15:40;99535.97;;;22.62;62.78
12594;BME280;6362;50.208;9.182;2022-09-03T17:23:09;99530.88;;;22.40;67.05
12594;BME280;6362;50.208;9.182;2022-09-03T17:25:39;99528.81;;;22.28;68.96
12594;BME280;6362;50.208;9.182;2022-09-03T17:28:48;99523.53;;;22.09;70.12
12594;BME280;6362;50.208;9.182;2022-09-03T17:30:57;99529.41;;;21.92;71.33
12594;BME280;6362;50.208;9.182;2022-09-03T17:36:20;99530.91;;;21.77;73.33
12594;BME280;6362;50.208;9.182;2022-09-03T17:39:09;99537.31;;;21.69;73.52
12594;BME280;6362;50.208;9.182;2022-09-03T17:41:54;99538.91;;;21.51;74.51